createdAt,value
2019-04-03T00:00:14.682Z,101135.50
2019-04-03T00:02:47.418Z,101134.50
2019-04-03T00:05:18.273Z,101131.52
2019-04-03T00:07:49.059Z,101125.28
2019-04-03T00:10:19.866Z,101131.00
2019-04-03T00:12:52.846Z,101125.61
2019-04-03T00:15:23.487Z,101122.54
2019-04-03T00:17:54.278Z,101120.19
2019-04-03T00:20:25.170Z,101114.06
2019-04-03T00:22:55.985Z,101124.06
2019-04-03T00:25:26.763Z,101120.70
2019-04-03T00:27:57.569Z,101114.41
2019-04-03T00:30:28.253Z,101109.67
2019-04-03T00:32:59.121Z,101116.25
2019-04-03T00:35:29.838Z,101104.00
2019-04-03T00:38:01.110Z,101111.11
2019-04-03T00:40:31.824Z,101102.45
2019-04-03T00:43:02.482Z,101104.64
2019-04-03T00:45:33.890Z,101092.62
2019-04-03T00:48:05.092Z,101096.84
2019-04-03T00:50:35.934Z,101100.94
2019-04-03T00:53:06.676Z,101092.91
2019-04-03T00:55:37.573Z,101088.11
2019-04-03T00:58:44.613Z,101084.53
2019-04-03T01:01:15.698Z,101077.95
2019-04-03T01:03:46.517Z,101076.56
2019-04-03T01:06:17.497Z,101077.37
2019-04-03T01:08:48.674Z,101077.78
2019-04-03T01:11:19.407Z,101065.88
2019-04-03T01:13:50.051Z,101068.23
2019-04-03T01:16:22.025Z,101058.48
2019-04-03T01:18:53.200Z,101066.16
2019-04-03T01:21:24.177Z,101062.81
2019-04-03T01:23:55.149Z,101063.05
2019-04-03T01:26:26.203Z,101063.27
2019-04-03T01:28:57.096Z,101055.53
2019-04-03T01:31:28.179Z,101054.42
2019-04-03T01:33:59.115Z,101053.80
2019-04-03T01:36:29.909Z,101049.23
2019-04-03T01:39:00.785Z,101054.02
2019-04-03T01:41:33.193Z,101050.34
2019-04-03T01:44:04.260Z,101045.77
2019-04-03T01:46:35.033Z,101042.89
2019-04-03T01:49:05.873Z,101043.30
2019-04-03T01:51:36.711Z,101049.94
2019-04-03T01:54:07.574Z,101043.70
2019-04-03T01:56:38.278Z,101041.32
2019-04-03T01:59:09.049Z,101043.92
2019-04-03T02:01:40.305Z,101038.78
2019-04-03T02:04:13.326Z,101032.27
2019-04-03T02:06:44.387Z,101032.15
2019-04-03T02:09:16.048Z,101038.79
2019-04-03T02:11:47.618Z,101030.18
2019-04-03T02:14:21.691Z,101023.48
2019-04-03T02:16:53.453Z,101012.63
2019-04-03T02:19:26.289Z,101014.92
2019-04-03T02:21:58.523Z,101017.88
2019-04-03T02:24:31.822Z,101012.05
2019-04-03T02:27:03.338Z,101008.17
2019-04-03T02:29:34.170Z,101003.73
2019-04-03T02:32:05.144Z,101011.06
2019-04-03T02:34:36.656Z,101004.83
2019-04-03T02:37:07.725Z,101008.88
2019-04-03T02:39:38.989Z,101016.44
2019-04-03T02:42:10.485Z,101006.22
2019-04-03T02:44:42.442Z,101010.83
2019-04-03T02:47:13.081Z,101013.55
2019-04-03T02:49:44.078Z,101009.85
2019-04-03T02:52:17.035Z,101005.18
2019-04-03T02:54:49.194Z,101005.81
2019-04-03T02:57:21.058Z,101002.12
2019-04-03T02:59:52.426Z,101007.02
2019-04-03T03:02:23.003Z,100997.03
2019-04-03T03:04:55.612Z,101001.42
2019-04-03T03:07:26.675Z,101000.84
2019-04-03T03:09:58.062Z,100996.34
2019-04-03T03:12:28.879Z,100991.83
2019-04-03T03:15:01.407Z,100991.48
2019-04-03T03:17:33.415Z,100989.81
2019-04-03T03:20:07.853Z,100995.06
2019-04-03T03:22:40.592Z,100991.78
2019-04-03T03:25:11.459Z,100997.33
2019-04-03T03:27:42.726Z,100991.38
2019-04-03T03:30:36.140Z,100991.32
2019-04-03T03:32:50.891Z,100989.87
2019-04-03T03:35:29.496Z,100991.38
2019-04-03T03:37:54.376Z,100983.41
2019-04-03T03:40:28.264Z,100987.11
2019-04-03T03:43:03.594Z,100987.11
2019-04-03T03:45:33.795Z,100982.59
2019-04-03T03:48:08.203Z,100981.80
2019-04-03T03:50:38.286Z,100976.36
2019-04-03T03:53:11.959Z,100975.67
2019-04-03T03:55:43.549Z,100978.73
2019-04-03T03:58:14.592Z,100982.89
2019-04-03T04:00:51.488Z,100986.75
2019-04-03T04:03:18.709Z,100987.39
2019-04-03T04:05:53.870Z,100979.87
2019-04-03T04:08:22.117Z,100982.99
2019-04-03T04:10:58.105Z,100982.47
2019-04-03T04:13:27.018Z,100977.86
2019-04-03T04:16:02.727Z,100976.77
2019-04-03T04:18:31.713Z,100973.01
2019-04-03T04:21:03.960Z,100976.02
2019-04-03T04:23:35.818Z,100969.89
2019-04-03T04:26:07.014Z,100968.86
2019-04-03T04:28:40.564Z,100969.43
2019-04-03T04:31:12.989Z,100969.95
2019-04-03T04:33:45.771Z,100975.55
2019-04-03T04:36:17.606Z,100969.61
2019-04-03T04:38:50.798Z,100969.26
2019-04-03T04:41:21.513Z,100968.08
2019-04-03T04:43:52.430Z,100969.34
2019-04-03T04:46:23.137Z,100973.09
2019-04-03T04:48:59.587Z,100972.86
2019-04-03T04:51:30.759Z,100974.17
2019-04-03T04:54:03.647Z,100968.72
2019-04-03T04:56:37.475Z,100965.63
2019-04-03T04:59:08.090Z,100968.10
2019-04-03T05:01:40.039Z,100964.86
2019-04-03T05:04:11.243Z,100955.30
2019-04-03T05:06:43.313Z,100948.84
2019-04-03T05:09:15.363Z,100953.30
2019-04-03T05:11:47.573Z,100950.84
2019-04-03T05:14:19.005Z,100956.25
2019-04-03T05:16:49.462Z,100958.84
2019-04-03T05:19:20.509Z,100961.91
2019-04-03T05:21:53.198Z,100958.59
2019-04-03T05:24:24.566Z,100957.85
2019-04-03T05:26:55.968Z,100961.19
2019-04-03T05:29:27.539Z,100960.09
2019-04-03T05:32:00.088Z,100960.89
2019-04-03T05:34:31.673Z,100958.64
2019-04-03T05:37:03.003Z,100965.23
2019-04-03T05:39:34.777Z,100955.19
2019-04-03T05:42:05.765Z,100960.84
2019-04-03T05:44:36.612Z,100960.78
2019-04-03T05:47:08.467Z,100964.05
2019-04-03T05:49:39.155Z,100964.25
2019-04-03T05:52:10.219Z,100977.19
2019-04-03T05:54:44.030Z,100958.81
2019-04-03T05:57:14.503Z,100964.56
2019-04-03T05:59:58.249Z,100963.70
2019-04-03T06:02:20.413Z,100966.16
2019-04-03T06:04:51.240Z,100968.41
2019-04-03T06:07:22.299Z,100959.86
2019-04-03T06:09:53.837Z,100966.20
2019-04-03T06:12:25.793Z,100972.27
2019-04-03T06:14:56.569Z,100971.12
2019-04-03T06:17:27.375Z,100972.41
2019-04-03T06:19:58.254Z,100976.95
2019-04-03T06:22:29.278Z,100972.63
2019-04-03T06:25:00.112Z,100965.32
2019-04-03T06:27:31.080Z,100971.73
2019-04-03T06:30:02.130Z,100966.25
2019-04-03T06:32:32.654Z,100974.68
2019-04-03T06:35:03.396Z,100969.97
2019-04-03T06:37:34.427Z,100976.45
2019-04-03T06:40:05.887Z,100980.05
2019-04-03T06:42:37.030Z,100970.80
2019-04-03T06:45:08.075Z,100977.01
2019-04-03T06:47:39.005Z,100976.69
2019-04-03T06:50:12.227Z,100970.27
2019-04-03T06:52:42.252Z,100975.03
2019-04-03T06:55:13.024Z,100974.91
2019-04-03T06:57:46.296Z,100974.52
2019-04-03T07:00:17.384Z,100980.04
2019-04-03T07:02:48.287Z,100975.55
2019-04-03T07:05:19.105Z,100970.52
2019-04-03T07:07:49.932Z,100965.65
2019-04-03T07:10:25.564Z,100966.66
2019-04-03T07:12:53.621Z,100961.09
2019-04-03T07:15:25.250Z,100959.45
2019-04-03T07:17:55.973Z,100961.72
2019-04-03T07:20:26.866Z,100964.97
2019-04-03T07:22:59.057Z,100959.44
2019-04-03T07:25:33.941Z,100959.92
2019-04-03T07:28:08.596Z,100909.91
2019-04-03T07:30:38.087Z,100957.14
2019-04-03T07:33:08.820Z,100964.52
2019-04-03T07:35:40.544Z,100963.05
2019-04-03T07:38:12.490Z,100960.59
2019-04-03T07:40:43.301Z,100958.83
2019-04-03T07:43:14.263Z,100959.13
2019-04-03T07:45:47.085Z,100962.05
2019-04-03T07:48:18.380Z,100947.54
2019-04-03T07:50:49.135Z,100944.53
2019-04-03T07:53:20.469Z,100945.87
2019-04-03T07:55:55.093Z,100944.26
2019-04-03T07:58:25.715Z,100942.84
2019-04-03T08:00:56.615Z,100955.43
2019-04-03T08:03:27.824Z,100953.41
2019-04-03T08:05:59.166Z,100951.98
2019-04-03T08:08:30.648Z,100949.58
2019-04-03T08:11:02.525Z,100952.32
2019-04-03T08:13:33.360Z,100953.45
2019-04-03T08:16:04.209Z,100963.06
2019-04-03T08:18:35.013Z,100960.47
2019-04-03T08:21:06.092Z,100963.14
2019-04-03T08:23:37.601Z,100953.22
2019-04-03T08:26:11.402Z,100948.48
2019-04-03T08:28:41.236Z,100962.44
2019-04-03T08:31:12.492Z,100952.89
2019-04-03T08:33:43.205Z,100954.84
2019-04-03T08:36:24.664Z,100942.56
2019-04-03T08:38:46.494Z,100948.78
2019-04-03T08:41:17.113Z,100951.19
2019-04-03T08:43:48.377Z,100951.16
2019-04-03T08:46:19.771Z,100944.68
2019-04-03T08:48:50.749Z,100943.45
2019-04-03T08:51:21.479Z,100943.66
2019-04-03T08:53:54.053Z,100945.39
2019-04-03T08:56:25.015Z,100950.39
2019-04-03T08:58:57.377Z,100943.09
2019-04-03T09:01:29.142Z,100944.42
2019-04-03T09:04:00.323Z,100942.69
2019-04-03T09:06:31.445Z,100936.61
2019-04-03T09:09:02.580Z,100935.88
2019-04-03T09:11:36.308Z,100930.31
2019-04-03T09:14:07.944Z,100925.03
2019-04-03T09:16:38.977Z,100937.64
2019-04-03T09:19:10.827Z,100943.13
2019-04-03T09:21:42.151Z,100931.30
2019-04-03T09:24:14.743Z,100932.46
2019-04-03T09:26:45.506Z,100935.48
2019-04-03T09:29:16.157Z,100929.11
2019-04-03T09:31:47.502Z,100927.20
2019-04-03T09:34:20.349Z,100930.06
2019-04-03T09:36:50.969Z,100921.64
2019-04-03T09:39:22.160Z,100924.90
2019-04-03T09:41:52.975Z,100930.64
2019-04-03T09:44:25.477Z,100927.33
2019-04-03T09:46:56.924Z,100914.95
2019-04-03T09:49:27.832Z,100924.39
2019-04-03T09:51:58.717Z,100923.39
2019-04-03T09:54:29.671Z,100924.81
2019-04-03T09:57:04.674Z,100917.52
2019-04-03T09:59:33.130Z,100916.00
2019-04-03T10:02:04.525Z,100920.41
2019-04-03T10:04:35.442Z,100918.48
2019-04-03T10:07:06.580Z,100921.66
2019-04-03T10:09:38.967Z,100908.55
2019-04-03T10:12:10.373Z,100909.70
2019-04-03T10:14:42.121Z,100900.27
2019-04-03T10:17:12.294Z,100905.63
2019-04-03T10:19:44.770Z,100924.92
2019-04-03T10:22:15.376Z,100905.29
2019-04-03T10:24:46.073Z,100909.89
2019-04-03T10:27:16.882Z,100918.61
2019-04-03T10:29:49.726Z,100914.58
2019-04-03T10:32:20.278Z,100908.88
2019-04-03T10:34:51.183Z,100911.77
2019-04-03T10:37:22.227Z,100893.75
2019-04-03T10:39:53.544Z,100901.52
2019-04-03T10:42:26.928Z,100895.86
2019-04-03T10:44:57.796Z,100901.89
2019-04-03T10:47:40.382Z,100908.59
2019-04-03T10:50:02.266Z,100907.06
2019-04-03T10:52:33.859Z,100905.44
2019-04-03T10:55:05.371Z,100906.88
2019-04-03T10:57:36.313Z,100902.47
2019-04-03T11:00:10.197Z,100902.48
2019-04-03T11:02:41.010Z,100902.11
2019-04-03T11:05:12.367Z,100900.55
2019-04-03T11:07:43.174Z,100888.41
2019-04-03T11:10:14.666Z,100904.67
2019-04-03T11:12:45.433Z,100897.98
2019-04-03T11:15:16.293Z,100896.35
2019-04-03T11:17:49.362Z,100893.66
2019-04-03T11:20:20.046Z,100889.94
2019-04-03T11:23:04.065Z,100891.37
2019-04-03T11:25:23.716Z,100894.53
2019-04-03T11:27:55.055Z,100895.41
2019-04-03T11:30:26.560Z,100898.43
2019-04-03T11:32:57.386Z,100902.64
2019-04-03T11:35:28.156Z,100898.10
2019-04-03T11:38:11.154Z,100897.63
2019-04-03T11:40:31.265Z,100901.06
2019-04-03T11:43:02.040Z,100880.81
2019-04-03T11:45:32.829Z,100879.75
2019-04-03T11:48:03.743Z,100886.19
2019-04-03T11:50:34.685Z,100883.87
2019-04-03T11:53:07.657Z,100893.09
2019-04-03T11:55:38.286Z,100883.86
2019-04-03T11:58:11.688Z,100884.46
2019-04-03T12:00:45.522Z,100893.95
2019-04-03T12:03:16.560Z,100893.30
2019-04-03T12:05:48.256Z,100889.55
2019-04-03T12:08:19.635Z,100886.75
2019-04-03T12:10:50.758Z,100890.71
2019-04-03T12:13:22.134Z,100890.05
2019-04-03T12:15:53.954Z,100895.78
2019-04-03T12:18:27.523Z,100886.10
2019-04-03T12:20:58.707Z,100889.17
2019-04-03T12:23:29.632Z,100883.42
2019-04-03T12:26:00.267Z,100893.66
2019-04-03T12:28:31.094Z,100902.09
2019-04-03T12:31:02.456Z,100890.22
2019-04-03T12:33:33.559Z,100893.67
2019-04-03T12:36:06.512Z,100903.05
2019-04-03T12:38:37.071Z,100899.91
2019-04-03T12:41:10.167Z,100892.34
2019-04-03T12:43:41.086Z,100897.38
2019-04-03T12:46:11.913Z,100899.98
2019-04-03T12:48:43.322Z,100897.20
2019-04-03T12:51:14.378Z,100886.57
2019-04-03T12:53:47.851Z,100891.67
2019-04-03T12:56:17.700Z,100894.08
2019-04-03T12:58:48.545Z,100891.16
2019-04-03T13:01:19.839Z,100892.91
2019-04-03T13:03:51.495Z,100891.75
2019-04-03T13:06:22.321Z,100897.22
2019-04-03T13:08:53.031Z,100896.72
2019-04-03T13:11:23.716Z,100886.96
2019-04-03T13:13:54.699Z,100896.16
2019-04-03T13:16:29.433Z,100885.72
2019-04-03T13:19:04.976Z,100884.02
2019-04-03T13:21:36.132Z,100885.45
2019-04-03T13:24:10.890Z,100879.59
2019-04-03T13:26:41.839Z,100881.98
2019-04-03T13:29:15.484Z,100878.72
2019-04-03T13:31:48.556Z,100876.14
2019-04-03T13:34:19.873Z,100873.93
2019-04-03T13:37:12.390Z,100871.15
2019-04-03T13:39:45.151Z,100871.63
2019-04-03T13:42:18.100Z,100878.81
2019-04-03T13:44:48.949Z,100880.25
2019-04-03T13:47:20.526Z,100867.89
2019-04-03T13:49:52.107Z,100874.22
2019-04-03T13:52:23.483Z,100875.81
2019-04-03T13:54:55.333Z,100869.88
2019-04-03T13:57:27.576Z,100878.49
2019-04-03T14:00:01.800Z,100878.02
2019-04-03T14:02:32.166Z,100868.92
2019-04-03T14:05:03.738Z,100875.05
2019-04-03T14:07:35.266Z,100873.08
2019-04-03T14:10:07.650Z,100866.66
2019-04-03T14:12:43.203Z,100867.05
2019-04-03T14:15:12.317Z,100869.11
2019-04-03T14:17:54.272Z,100872.95
2019-04-03T14:20:17.649Z,100868.92
2019-04-03T14:22:48.872Z,100865.57
2019-04-03T14:25:23.438Z,100869.50
2019-04-03T14:27:55.976Z,100869.20
2019-04-03T14:30:26.962Z,100865.47
2019-04-03T14:32:57.622Z,100868.67
2019-04-03T14:35:50.426Z,100863.86
2019-04-03T14:38:00.429Z,100863.45
2019-04-03T14:40:31.377Z,100864.70
2019-04-03T14:43:02.049Z,100861.05
2019-04-03T14:45:33.748Z,100859.86
2019-04-03T14:48:04.396Z,100849.78
2019-04-03T14:50:37.700Z,100851.42
2019-04-03T14:53:11.871Z,100857.36
2019-04-03T14:55:49.299Z,100854.00
2019-04-03T14:58:15.313Z,100851.94
2019-04-03T15:00:48.515Z,100846.66
2019-04-03T15:03:17.444Z,100843.11
2019-04-03T15:05:48.062Z,100840.62
2019-04-03T15:08:18.349Z,100845.86
2019-04-03T15:10:50.259Z,100836.62
2019-04-03T15:13:20.457Z,100831.80
2019-04-03T15:15:51.047Z,100834.71
2019-04-03T15:18:21.667Z,100843.90
2019-04-03T15:20:51.942Z,100833.36
2019-04-03T15:23:23.068Z,100827.64
2019-04-03T15:25:53.520Z,100825.05
2019-04-03T15:28:24.118Z,100834.30
2019-04-03T15:30:56.365Z,100828.82
2019-04-03T15:33:27.501Z,100833.34
2019-04-03T15:35:58.936Z,100834.67
2019-04-03T15:38:30.069Z,100830.73
2019-04-03T15:41:00.631Z,100833.80
2019-04-03T15:43:30.874Z,100824.64
2019-04-03T15:46:01.168Z,100827.58
2019-04-03T15:48:31.426Z,100830.85
2019-04-03T15:51:05.637Z,100829.19
2019-04-03T15:53:34.565Z,100823.57
2019-04-03T15:56:05.747Z,100676.56
2019-04-03T15:58:36.332Z,100818.66
2019-04-03T16:01:08.476Z,100824.91
2019-04-03T16:03:38.738Z,100812.50
2019-04-03T16:06:08.938Z,100812.77
2019-04-03T16:08:40.368Z,100817.75
2019-04-03T16:11:10.674Z,100810.89
2019-04-03T16:13:40.838Z,100815.97
2019-04-03T16:16:11.487Z,100809.48
2019-04-03T16:18:42.136Z,100814.17
2019-04-03T16:21:12.844Z,100810.47
2019-04-03T16:23:43.154Z,100812.50
2019-04-03T16:26:13.422Z,100814.48
2019-04-03T16:28:44.184Z,100807.92
2019-04-03T16:31:14.915Z,100813.21
2019-04-03T16:33:45.534Z,100810.23
2019-04-03T16:36:17.143Z,100816.05
2019-04-03T16:38:48.601Z,100816.68
2019-04-03T16:41:18.972Z,100810.00
2019-04-03T16:43:49.402Z,100813.45
2019-04-03T16:46:19.636Z,100810.56
2019-04-03T16:48:51.074Z,100807.27
2019-04-03T16:51:22.437Z,100810.50
2019-04-03T16:53:52.877Z,100815.70
2019-04-03T16:56:23.241Z,100813.89
2019-04-03T16:58:53.517Z,100816.07
2019-04-03T17:01:23.739Z,100820.50
2019-04-03T17:03:53.964Z,100824.55
2019-04-03T17:06:24.170Z,100817.27
2019-04-03T17:08:54.456Z,100815.86
2019-04-03T17:11:26.295Z,100823.87
2019-04-03T17:13:58.130Z,100825.28
2019-04-03T17:16:30.891Z,100820.19
2019-04-03T17:19:01.076Z,100819.61
2019-04-03T17:21:36.976Z,100817.80
2019-04-03T17:24:03.826Z,100816.47
2019-04-03T17:26:34.522Z,100818.04
2019-04-03T17:29:07.144Z,100817.72
2019-04-03T17:31:37.762Z,100820.78
2019-04-03T17:34:08.557Z,100819.22
2019-04-03T17:36:40.584Z,100824.00
2019-04-03T17:39:11.177Z,100825.22
2019-04-03T17:41:46.272Z,100828.35
2019-04-03T17:44:17.096Z,100827.18
2019-04-03T17:46:49.440Z,100827.30
2019-04-03T17:49:19.854Z,100830.27
2019-04-03T17:51:50.064Z,100827.77
2019-04-03T17:54:20.269Z,100832.57
2019-04-03T17:56:50.472Z,100828.01
2019-04-03T17:59:22.878Z,100834.45
2019-04-03T18:01:53.925Z,100831.07
2019-04-03T18:04:24.201Z,100831.07
2019-04-03T18:06:57.276Z,100831.64
2019-04-03T18:09:26.991Z,100835.34
2019-04-03T18:11:58.015Z,100836.63
2019-04-03T18:14:30.812Z,100830.84
2019-04-03T18:17:01.896Z,100836.03
2019-04-03T18:19:37.634Z,100832.11
2019-04-03T18:22:10.212Z,100828.16
2019-04-03T18:24:41.756Z,100842.97
2019-04-03T18:27:12.001Z,100843.21
2019-04-03T18:29:44.656Z,100834.82
2019-04-03T18:32:15.445Z,100845.27
2019-04-03T18:34:50.762Z,100835.53
2019-04-03T18:37:20.619Z,100837.16
2019-04-03T18:39:51.682Z,100841.82
2019-04-03T18:42:22.030Z,100835.16
2019-04-03T18:44:52.219Z,100843.98
2019-04-03T18:47:22.447Z,100851.22
2019-04-03T18:49:55.345Z,100836.49
2019-04-03T18:52:24.673Z,100841.42
2019-04-03T18:54:54.928Z,100840.42
2019-04-03T18:57:25.128Z,100840.63
2019-04-03T18:59:56.456Z,100838.89
2019-04-03T19:02:27.208Z,100839.30
2019-04-03T19:05:02.258Z,100844.48
2019-04-03T19:07:31.815Z,100842.08
2019-04-03T19:10:07.459Z,100841.89
2019-04-03T19:12:36.162Z,100837.83
2019-04-03T19:15:08.131Z,100833.27
2019-04-03T19:17:39.789Z,100836.75
2019-04-03T19:20:11.533Z,100834.63
2019-04-03T19:22:42.329Z,100833.84
2019-04-03T19:25:14.424Z,100700.06
2019-04-03T19:27:46.001Z,100838.91
2019-04-03T19:30:16.935Z,100834.98
2019-04-03T19:32:47.718Z,100833.09
2019-04-03T19:35:22.248Z,100843.08
2019-04-03T19:37:54.071Z,100835.42
2019-04-03T19:40:24.690Z,100833.69
2019-04-03T19:42:55.374Z,100833.58
2019-04-03T19:45:30.540Z,100830.37
2019-04-03T19:48:02.506Z,100833.30
2019-04-03T19:50:36.911Z,100832.09
2019-04-03T19:53:13.516Z,100824.57
2019-04-03T19:55:46.660Z,100661.16
2019-04-03T19:58:19.710Z,100823.31
2019-04-03T20:00:50.307Z,100826.84
2019-04-03T20:03:20.729Z,100829.03
2019-04-03T20:05:51.141Z,100823.17
2019-04-03T20:08:22.992Z,100829.24
2019-04-03T20:10:53.973Z,100824.48
2019-04-03T20:13:24.758Z,100826.50
2019-04-03T20:15:54.965Z,100832.11
2019-04-03T20:18:25.931Z,100827.50
2019-04-03T20:20:56.878Z,100827.85
2019-04-03T20:23:29.972Z,100833.11
2019-04-03T20:25:59.056Z,100831.62
2019-04-03T20:28:29.361Z,100835.38
2019-04-03T20:30:59.741Z,100824.89
2019-04-03T20:33:29.944Z,100825.72
2019-04-03T20:36:01.217Z,100828.70
2019-04-03T20:38:33.268Z,100823.84
2019-04-03T20:41:03.883Z,100832.23
2019-04-03T20:43:34.133Z,100827.05
2019-04-03T20:46:04.324Z,100822.51
2019-04-03T20:48:35.691Z,100820.19
2019-04-03T20:51:08.798Z,100824.63
2019-04-03T20:53:37.858Z,100819.63
2019-04-03T20:56:08.018Z,100818.76
2019-04-03T20:58:40.733Z,100816.95
2019-04-03T21:01:10.275Z,100813.75
2019-04-03T21:03:41.836Z,100813.75
2019-04-03T21:06:12.363Z,100819.47
2019-04-03T21:08:42.558Z,100819.86
2019-04-03T21:11:12.729Z,100816.67
2019-04-03T21:13:43.019Z,100820.96
2019-04-03T21:16:16.923Z,100816.75
2019-04-03T21:18:47.943Z,100821.77
2019-04-03T21:21:18.127Z,100821.61
2019-04-03T21:23:48.370Z,100827.07
2019-04-03T21:26:18.569Z,100816.72
2019-04-03T21:28:49.415Z,100821.04
2019-04-03T21:31:19.648Z,100820.41
2019-04-03T21:33:49.846Z,100823.61
2019-04-03T21:36:20.171Z,100822.75
2019-04-03T21:38:50.456Z,100824.58
2019-04-03T21:41:21.297Z,100818.31
2019-04-03T21:43:55.557Z,100821.67
2019-04-03T21:46:25.798Z,100817.81
2019-04-03T21:48:56.116Z,100820.66
2019-04-03T21:51:26.312Z,100821.22
2019-04-03T21:53:56.658Z,100823.79
2019-04-03T21:56:26.867Z,100816.50
2019-04-03T21:58:57.078Z,100814.55
2019-04-03T22:01:27.854Z,100820.82
2019-04-03T22:03:58.041Z,100824.42
2019-04-03T22:06:28.220Z,100822.99
2019-04-03T22:09:00.377Z,100828.80
2019-04-03T22:11:30.409Z,100820.55
2019-04-03T22:14:00.657Z,100831.22
2019-04-03T22:16:31.156Z,100825.28
2019-04-03T22:19:01.406Z,100825.34
2019-04-03T22:21:32.510Z,100830.83
2019-04-03T22:24:06.567Z,100827.80
2019-04-03T22:26:36.143Z,100825.92
2019-04-03T22:29:06.480Z,100824.11
2019-04-03T22:31:36.684Z,100822.85
2019-04-03T22:34:06.956Z,100824.67
2019-04-03T22:36:39.900Z,100827.72
2019-04-03T22:39:10.182Z,100831.25
2019-04-03T22:41:40.931Z,100826.69
2019-04-03T22:44:12.502Z,100819.40
2019-04-03T22:46:42.692Z,100830.84
2019-04-03T22:49:12.885Z,100830.00
2019-04-03T22:51:43.866Z,100830.31
2019-04-03T22:54:14.070Z,100829.13
2019-04-03T22:56:44.236Z,100828.94
2019-04-03T22:59:16.077Z,100819.87
2019-04-03T23:01:48.083Z,100820.27
2019-04-03T23:04:18.329Z,100823.09
2019-04-03T23:06:49.695Z,100819.25
2019-04-03T23:09:24.677Z,100816.58
2019-04-03T23:11:54.031Z,100814.22
2019-04-03T23:14:24.230Z,100810.77
2019-04-03T23:16:54.426Z,100810.52
2019-04-03T23:19:24.620Z,100814.53
2019-04-03T23:21:55.413Z,100814.61
2019-04-03T23:24:28.662Z,100812.58
2019-04-03T23:26:57.460Z,100803.70
2019-04-03T23:29:27.724Z,100809.67
2019-04-03T23:31:57.904Z,100815.01
2019-04-03T23:34:28.094Z,100810.70
2019-04-03T23:36:58.351Z,100806.46
2019-04-03T23:39:28.552Z,100803.33
2019-04-03T23:41:58.768Z,100797.36
2019-04-03T23:44:28.981Z,100795.17
2019-04-03T23:46:59.172Z,100793.91
2019-04-03T23:49:29.583Z,100801.05
2019-04-03T23:52:01.608Z,100803.00
2019-04-03T23:54:33.564Z,100804.72
2019-04-03T23:57:03.735Z,100801.51
2019-04-03T23:59:33.934Z,100801.59
